sensor_id;sensor_type;location;lat;lon;timestamp;P1;durP1;ratioP1;P2;durP2;ratioP2
1947;SDS011;974;52.400;9.818;2022-07-23T00:00:54;8.43;;;4.17;;
1947;SDS011;974;52.400;9.818;2022-07-23T00:03:19;7.40;;;5.03;;
1947;SDS011;974;52.400;9.818;2022-07-23T00:05:45;10.00;;;5.30;;
1947;SDS011;974;52.400;9.818;2022-07-23T00:08:10;7.97;;;4.80;;
1947;SDS011;974;52.400;9.818;2022-07-23T00:10:36;8.00;;;5.00;;
1947;SDS011;974;52.400;9.818;2022-07-23T00:13:01;6.83;;;4.83;;
1947;SDS011;974;52.400;9.818;2022-07-23T00:15:27;11.77;;;5.43;;
1947;SDS011;974;52.400;9.818;2022-07-23T00:17:53;7.47;;;4.93;;
1947;SDS011;974;52.400;9.818;2022-07-23T00:20:18;7.00;;;4.00;;
1947;SDS011;974;52.400;9.818;2022-07-23T00:22:48;6.97;;;4.70;;
1947;SDS011;974;52.400;9.818;2022-07-23T00:25:14;7.93;;;4.88;;
1947;SDS011;974;52.400;9.818;2022-07-23T00:27:40;11.37;;;5.00;;
1947;SDS011;974;52.400;9.818;2022-07-23T00:30:06;7.90;;;4.93;;
1947;SDS011;974;52.400;9.818;2022-07-23T00:32:32;7.82;;;4.90;;
1947;SDS011;974;52.400;9.818;2022-07-23T00:35:09;9.65;;;4.65;;
1947;SDS011;974;52.400;9.818;2022-07-23T00:37:34;8.00;;;4.87;;
1947;SDS011;974;52.400;9.818;2022-07-23T00:40:00;8.30;;;4.50;;
1947;SDS011;974;52.400;9.818;2022-07-23T00:42:25;9.30;;;4.60;;
1947;SDS011;974;52.400;9.818;2022-07-23T00:44:51;8.17;;;4.40;;
1947;SDS011;974;52.400;9.818;2022-07-23T00:47:16;6.63;;;4.30;;
1947;SDS011;974;52.400;9.818;2022-07-23T00:49:42;8.50;;;4.93;;
1947;SDS011;974;52.400;9.818;2022-07-23T00:52:07;9.27;;;4.87;;
1947;SDS011;974;52.400;9.818;2022-07-23T00:54:33;9.10;;;4.80;;
1947;SDS011;974;52.400;9.818;2022-07-23T00:56:58;8.47;;;5.10;;
1947;SDS011;974;52.400;9.818;2022-07-23T00:59:24;10.00;;;5.53;;
1947;SDS011;974;52.400;9.818;2022-07-23T01:01:49;9.17;;;5.13;;
1947;SDS011;974;52.400;9.818;2022-07-23T01:04:16;12.03;;;5.23;;
1947;SDS011;974;52.400;9.818;2022-07-23T01:06:41;10.98;;;6.07;;
1947;SDS011;974;52.400;9.818;2022-07-23T01:09:08;8.75;;;5.43;;
1947;SDS011;974;52.400;9.818;2022-07-23T01:11:34;9.83;;;5.13;;
1947;SDS011;974;52.400;9.818;2022-07-23T01:14:14;10.75;;;5.10;;
1947;SDS011;974;52.400;9.818;2022-07-23T01:16:41;9.43;;;5.75;;
1947;SDS011;974;52.400;9.818;2022-07-23T01:19:08;8.15;;;5.20;;
1947;SDS011;974;52.400;9.818;2022-07-23T01:21:41;10.80;;;6.20;;
1947;SDS011;974;52.400;9.818;2022-07-23T01:24:11;8.85;;;4.93;;
1947;SDS011;974;52.400;9.818;2022-07-23T01:26:37;7.75;;;4.57;;
1947;SDS011;974;52.400;9.818;2022-07-23T01:29:05;9.27;;;5.70;;
1947;SDS011;974;52.400;9.818;2022-07-23T01:31:31;7.43;;;5.03;;
1947;SDS011;974;52.400;9.818;2022-07-23T01:33:57;13.93;;;5.63;;
1947;SDS011;974;52.400;9.818;2022-07-23T01:36:22;11.00;;;5.20;;
1947;SDS011;974;52.400;9.818;2022-07-23T01:38:48;8.93;;;5.00;;
1947;SDS011;974;52.400;9.818;2022-07-23T01:41:14;10.70;;;4.50;;
1947;SDS011;974;52.400;9.818;2022-07-23T01:43:39;8.73;;;5.30;;
1947;SDS011;974;52.400;9.818;2022-07-23T01:46:05;9.57;;;5.00;;
1947;SDS011;974;52.400;9.818;2022-07-23T01:48:30;8.20;;;5.10;;
1947;SDS011;974;52.400;9.818;2022-07-23T01:50:56;9.93;;;5.03;;
1947;SDS011;974;52.400;9.818;2022-07-23T01:53:21;11.07;;;6.00;;
1947;SDS011;974;52.400;9.818;2022-07-23T01:55:47;11.03;;;5.50;;
1947;SDS011;974;52.400;9.818;2022-07-23T01:58:12;8.87;;;5.00;;
1947;SDS011;974;52.400;9.818;2022-07-23T02:00:38;10.23;;;5.67;;
1947;SDS011;974;52.400;9.818;2022-07-23T02:03:03;11.43;;;5.10;;
1947;SDS011;974;52.400;9.818;2022-07-23T02:05:29;12.60;;;5.90;;
1947;SDS011;974;52.400;9.818;2022-07-23T02:07:56;7.85;;;5.15;;
1947;SDS011;974;52.400;9.818;2022-07-23T02:10:22;7.43;;;5.10;;
1947;SDS011;974;52.400;9.818;2022-07-23T02:12:48;10.43;;;6.00;;
1947;SDS011;974;52.400;9.818;2022-07-23T02:15:13;16.50;;;5.87;;
1947;SDS011;974;52.400;9.818;2022-07-23T02:17:39;7.63;;;4.97;;
1947;SDS011;974;52.400;9.818;2022-07-23T02:20:05;8.15;;;5.55;;
1947;SDS011;974;52.400;9.818;2022-07-23T02:22:32;17.13;;;5.68;;
1947;SDS011;974;52.400;9.818;2022-07-23T02:24:57;8.90;;;5.73;;
1947;SDS011;974;52.400;9.818;2022-07-23T02:27:23;9.10;;;5.97;;
1947;SDS011;974;52.400;9.818;2022-07-23T02:29:48;10.47;;;5.10;;
1947;SDS011;974;52.400;9.818;2022-07-23T02:32:15;9.95;;;7.40;;
1947;SDS011;974;52.400;9.818;2022-07-23T02:34:41;9.38;;;5.50;;
1947;SDS011;974;52.400;9.818;2022-07-23T02:37:07;7.60;;;5.27;;
1947;SDS011;974;52.400;9.818;2022-07-23T02:39:33;9.00;;;5.82;;
1947;SDS011;974;52.400;9.818;2022-07-23T02:42:02;8.27;;;4.80;;
1947;SDS011;974;52.400;9.818;2022-07-23T02:44:27;15.00;;;5.70;;
1947;SDS011;974;52.400;9.818;2022-07-23T02:46:53;8.90;;;6.07;;
1947;SDS011;974;52.400;9.818;2022-07-23T02:49:18;7.90;;;5.40;;
1947;SDS011;974;52.400;9.818;2022-07-23T02:51:44;13.93;;;5.87;;
1947;SDS011;974;52.400;9.818;2022-07-23T02:54:09;8.90;;;5.20;;
1947;SDS011;974;52.400;9.818;2022-07-23T02:56:35;11.00;;;5.73;;
1947;SDS011;974;52.400;9.818;2022-07-23T02:59:00;10.27;;;5.67;;
1947;SDS011;974;52.400;9.818;2022-07-23T03:01:26;8.80;;;5.13;;
1947;SDS011;974;52.400;9.818;2022-07-23T03:03:51;11.37;;;5.67;;
1947;SDS011;974;52.400;9.818;2022-07-23T03:06:17;13.23;;;7.10;;
1947;SDS011;974;52.400;9.818;2022-07-23T03:08:43;10.97;;;5.87;;
1947;SDS011;974;52.400;9.818;2022-07-23T03:11:08;8.70;;;5.50;;
1947;SDS011;974;52.400;9.818;2022-07-23T03:13:36;10.75;;;5.78;;
1947;SDS011;974;52.400;9.818;2022-07-23T03:16:05;7.63;;;5.00;;
1947;SDS011;974;52.400;9.818;2022-07-23T03:18:31;8.80;;;5.47;;
1947;SDS011;974;52.400;9.818;2022-07-23T03:20:57;8.57;;;5.73;;
1947;SDS011;974;52.400;9.818;2022-07-23T03:23:22;29.87;;;6.47;;
1947;SDS011;974;52.400;9.818;2022-07-23T03:25:48;10.97;;;6.20;;
1947;SDS011;974;52.400;9.818;2022-07-23T03:28:14;11.60;;;5.93;;
1947;SDS011;974;52.400;9.818;2022-07-23T03:30:43;8.98;;;6.00;;
1947;SDS011;974;52.400;9.818;2022-07-23T03:33:11;7.57;;;5.07;;
1947;SDS011;974;52.400;9.818;2022-07-23T03:35:37;7.65;;;5.22;;
1947;SDS011;974;52.400;9.818;2022-07-23T03:38:03;9.90;;;5.57;;
1947;SDS011;974;52.400;9.818;2022-07-23T03:40:28;10.50;;;5.57;;
1947;SDS011;974;52.400;9.818;2022-07-23T03:42:54;7.77;;;5.40;;
1947;SDS011;974;52.400;9.818;2022-07-23T03:45:19;10.17;;;5.80;;
1947;SDS011;974;52.400;9.818;2022-07-23T03:47:45;12.67;;;6.30;;
1947;SDS011;974;52.400;9.818;2022-07-23T03:50:10;12.23;;;6.27;;
1947;SDS011;974;52.400;9.818;2022-07-23T03:52:36;9.77;;;6.17;;
1947;SDS011;974;52.400;9.818;2022-07-23T03:55:02;12.63;;;6.30;;
1947;SDS011;974;52.400;9.818;2022-07-23T03:57:28;14.32;;;6.20;;
1947;SDS011;974;52.400;9.818;2022-07-23T03:59:54;23.87;;;6.70;;
1947;SDS011;974;52.400;9.818;2022-07-23T04:02:19;9.70;;;5.63;;
1947;SDS011;974;52.400;9.818;2022-07-23T04:04:44;14.90;;;6.30;;
1947;SDS011;974;52.400;9.818;2022-07-23T04:07:11;12.85;;;6.07;;
1947;SDS011;974;52.400;9.818;2022-07-23T04:09:37;12.40;;;6.83;;
1947;SDS011;974;52.400;9.818;2022-07-23T04:12:03;12.77;;;6.20;;
1947;SDS011;974;52.400;9.818;2022-07-23T04:14:28;12.70;;;6.47;;
1947;SDS011;974;52.400;9.818;2022-07-23T04:16:54;10.73;;;6.93;;
1947;SDS011;974;52.400;9.818;2022-07-23T04:19:19;9.70;;;6.27;;
1947;SDS011;974;52.400;9.818;2022-07-23T04:21:45;11.27;;;6.40;;
1947;SDS011;974;52.400;9.818;2022-07-23T04:24:11;11.70;;;6.20;;
1947;SDS011;974;52.400;9.818;2022-07-23T04:26:36;10.40;;;5.90;;
1947;SDS011;974;52.400;9.818;2022-07-23T04:29:02;10.77;;;6.80;;
1947;SDS011;974;52.400;9.818;2022-07-23T04:31:27;11.13;;;5.93;;
1947;SDS011;974;52.400;9.818;2022-07-23T04:33:53;11.90;;;6.00;;
1947;SDS011;974;52.400;9.818;2022-07-23T04:36:18;10.37;;;5.87;;
1947;SDS011;974;52.400;9.818;2022-07-23T04:38:44;12.20;;;6.47;;
1947;SDS011;974;52.400;9.818;2022-07-23T04:41:09;9.90;;;6.20;;
1947;SDS011;974;52.400;9.818;2022-07-23T04:43:35;10.80;;;6.40;;
1947;SDS011;974;52.400;9.818;2022-07-23T04:46:00;9.20;;;5.70;;
1947;SDS011;974;52.400;9.818;2022-07-23T04:48:26;12.73;;;6.83;;
1947;SDS011;974;52.400;9.818;2022-07-23T04:50:51;9.20;;;6.50;;
1947;SDS011;974;52.400;9.818;2022-07-23T04:53:16;11.80;;;6.67;;
1947;SDS011;974;52.400;9.818;2022-07-23T04:55:43;10.60;;;6.30;;
1947;SDS011;974;52.400;9.818;2022-07-23T04:58:09;9.70;;;6.10;;
1947;SDS011;974;52.400;9.818;2022-07-23T05:00:34;12.50;;;6.63;;
1947;SDS011;974;52.400;9.818;2022-07-23T05:02:59;18.20;;;7.60;;
1947;SDS011;974;52.400;9.818;2022-07-23T05:05:25;10.23;;;6.30;;
1947;SDS011;974;52.400;9.818;2022-07-23T05:07:50;12.30;;;7.10;;
1947;SDS011;974;52.400;9.818;2022-07-23T05:10:16;11.63;;;6.67;;
1947;SDS011;974;52.400;9.818;2022-07-23T05:12:42;10.00;;;6.30;;
1947;SDS011;974;52.400;9.818;2022-07-23T05:15:07;14.07;;;6.87;;
1947;SDS011;974;52.400;9.818;2022-07-23T05:17:33;15.47;;;7.37;;
1947;SDS011;974;52.400;9.818;2022-07-23T05:19:58;11.30;;;7.13;;
1947;SDS011;974;52.400;9.818;2022-07-23T05:22:24;11.40;;;6.07;;
1947;SDS011;974;52.400;9.818;2022-07-23T05:24:49;14.37;;;6.60;;
1947;SDS011;974;52.400;9.818;2022-07-23T05:27:15;16.47;;;6.70;;
1947;SDS011;974;52.400;9.818;2022-07-23T05:29:40;12.27;;;7.30;;
1947;SDS011;974;52.400;9.818;2022-07-23T05:32:06;12.67;;;7.67;;
1947;SDS011;974;52.400;9.818;2022-07-23T05:34:31;11.50;;;6.43;;
1947;SDS011;974;52.400;9.818;2022-07-23T05:36:57;11.83;;;6.73;;
1947;SDS011;974;52.400;9.818;2022-07-23T05:39:22;15.70;;;7.50;;
1947;SDS011;974;52.400;9.818;2022-07-23T05:41:47;10.70;;;6.30;;
1947;SDS011;974;52.400;9.818;2022-07-23T05:44:13;9.67;;;6.50;;
1947;SDS011;974;52.400;9.818;2022-07-23T05:46:38;12.17;;;6.90;;
1947;SDS011;974;52.400;9.818;2022-07-23T05:49:04;11.17;;;6.80;;
1947;SDS011;974;52.400;9.818;2022-07-23T05:51:29;9.93;;;6.10;;
1947;SDS011;974;52.400;9.818;2022-07-23T05:53:55;16.50;;;7.23;;
1947;SDS011;974;52.400;9.818;2022-07-23T05:56:20;10.80;;;6.20;;
1947;SDS011;974;52.400;9.818;2022-07-23T05:58:46;16.23;;;7.53;;
1947;SDS011;974;52.400;9.818;2022-07-23T06:01:12;12.87;;;7.67;;
1947;SDS011;974;52.400;9.818;2022-07-23T06:03:38;18.13;;;7.50;;
1947;SDS011;974;52.400;9.818;2022-07-23T06:06:04;13.98;;;7.20;;
1947;SDS011;974;52.400;9.818;2022-07-23T06:08:30;12.60;;;7.05;;
1947;SDS011;974;52.400;9.818;2022-07-23T06:10:55;14.00;;;7.20;;
1947;SDS011;974;52.400;9.818;2022-07-23T06:13:21;18.43;;;7.20;;
1947;SDS011;974;52.400;9.818;2022-07-23T06:15:46;14.60;;;7.93;;
1947;SDS011;974;52.400;9.818;2022-07-23T06:18:12;9.07;;;6.10;;
1947;SDS011;974;52.400;9.818;2022-07-23T06:20:37;9.93;;;6.43;;
1947;SDS011;974;52.400;9.818;2022-07-23T06:23:03;11.60;;;6.23;;
1947;SDS011;974;52.400;9.818;2022-07-23T06:25:29;8.10;;;5.93;;
1947;SDS011;974;52.400;9.818;2022-07-23T06:27:55;9.63;;;6.40;;
1947;SDS011;974;52.400;9.818;2022-07-23T06:30:20;14.60;;;6.60;;
1947;SDS011;974;52.400;9.818;2022-07-23T06:32:47;10.00;;;5.83;;
1947;SDS011;974;52.400;9.818;2022-07-23T06:35:14;12.68;;;5.47;;
1947;SDS011;974;52.400;9.818;2022-07-23T06:37:40;8.68;;;5.97;;
1947;SDS011;974;52.400;9.818;2022-07-23T06:40:05;9.80;;;4.87;;
1947;SDS011;974;52.400;9.818;2022-07-23T06:42:31;9.20;;;4.60;;
1947;SDS011;974;52.400;9.818;2022-07-23T06:44:57;9.47;;;5.37;;
1947;SDS011;974;52.400;9.818;2022-07-23T06:47:22;9.30;;;5.50;;
1947;SDS011;974;52.400;9.818;2022-07-23T06:49:48;9.03;;;4.93;;
1947;SDS011;974;52.400;9.818;2022-07-23T06:52:14;6.60;;;4.27;;
1947;SDS011;974;52.400;9.818;2022-07-23T06:54:39;8.83;;;5.00;;
1947;SDS011;974;52.400;9.818;2022-07-23T06:57:05;8.70;;;4.53;;
1947;SDS011;974;52.400;9.818;2022-07-23T06:59:30;11.47;;;4.90;;
1947;SDS011;974;52.400;9.818;2022-07-23T07:01:56;9.70;;;5.27;;
1947;SDS011;974;52.400;9.818;2022-07-23T07:04:23;9.82;;;5.60;;
1947;SDS011;974;52.400;9.818;2022-07-23T07:06:48;7.63;;;4.40;;
1947;SDS011;974;52.400;9.818;2022-07-23T07:09:14;8.93;;;4.50;;
1947;SDS011;974;52.400;9.818;2022-07-23T07:11:39;7.53;;;4.73;;
1947;SDS011;974;52.400;9.818;2022-07-23T07:14:04;8.67;;;5.20;;
1947;SDS011;974;52.400;9.818;2022-07-23T07:16:31;25.58;;;5.43;;
1947;SDS011;974;52.400;9.818;2022-07-23T07:18:56;10.30;;;4.80;;
1947;SDS011;974;52.400;9.818;2022-07-23T07:21:22;6.80;;;4.13;;
1947;SDS011;974;52.400;9.818;2022-07-23T07:23:47;11.17;;;4.40;;
1947;SDS011;974;52.400;9.818;2022-07-23T07:26:13;6.33;;;3.80;;
1947;SDS011;974;52.400;9.818;2022-07-23T07:28:38;9.27;;;3.80;;
1947;SDS011;974;52.400;9.818;2022-07-23T07:31:04;11.47;;;4.00;;
1947;SDS011;974;52.400;9.818;2022-07-23T07:33:29;6.50;;;3.77;;
1947;SDS011;974;52.400;9.818;2022-07-23T07:35:55;7.17;;;3.90;;
1947;SDS011;974;52.400;9.818;2022-07-23T07:38:20;8.67;;;3.33;;
1947;SDS011;974;52.400;9.818;2022-07-23T07:40:46;5.90;;;2.93;;
1947;SDS011;974;52.400;9.818;2022-07-23T07:43:11;7.30;;;4.10;;
1947;SDS011;974;52.400;9.818;2022-07-23T07:45:37;8.80;;;3.30;;
1947;SDS011;974;52.400;9.818;2022-07-23T07:48:03;7.33;;;3.30;;
1947;SDS011;974;52.400;9.818;2022-07-23T07:50:29;6.75;;;3.15;;
1947;SDS011;974;52.400;9.818;2022-07-23T07:52:54;9.50;;;3.53;;
1947;SDS011;974;52.400;9.818;2022-07-23T07:55:20;4.97;;;2.53;;
1947;SDS011;974;52.400;9.818;2022-07-23T07:57:45;4.50;;;3.13;;
1947;SDS011;974;52.400;9.818;2022-07-23T08:00:11;3.93;;;2.53;;
1947;SDS011;974;52.400;9.818;2022-07-23T08:02:47;7.10;;;3.60;;
1947;SDS011;974;52.400;9.818;2022-07-23T08:05:14;5.15;;;2.83;;
1947;SDS011;974;52.400;9.818;2022-07-23T08:07:43;9.35;;;3.13;;
1947;SDS011;974;52.400;9.818;2022-07-23T08:10:09;5.87;;;2.63;;
1947;SDS011;974;52.400;9.818;2022-07-23T08:12:54;7.80;;;5.05;;
1947;SDS011;974;52.400;9.818;2022-07-23T08:15:26;6.85;;;2.90;;
1947;SDS011;974;52.400;9.818;2022-07-23T08:17:53;7.70;;;3.83;;
1947;SDS011;974;52.400;9.818;2022-07-23T08:20:19;5.60;;;2.50;;
1947;SDS011;974;52.400;9.818;2022-07-23T08:23:00;4.40;;;2.83;;
1947;SDS011;974;52.400;9.818;2022-07-23T08:25:29;13.50;;;7.00;;
1947;SDS011;974;52.400;9.818;2022-07-23T08:28:03;5.25;;;3.25;;
1947;SDS011;974;52.400;9.818;2022-07-23T08:30:31;5.97;;;3.15;;
1947;SDS011;974;52.400;9.818;2022-07-23T08:35:33;7.47;;;2.90;;
1947;SDS011;974;52.400;9.818;2022-07-23T08:38:04;5.20;;;2.58;;
1947;SDS011;974;52.400;9.818;2022-07-23T08:40:32;5.53;;;2.75;;
1947;SDS011;974;52.400;9.818;2022-07-23T08:42:59;13.25;;;2.88;;
1947;SDS011;974;52.400;9.818;2022-07-23T08:45:29;6.68;;;2.50;;
1947;SDS011;974;52.400;9.818;2022-07-23T08:47:55;4.07;;;2.30;;
1947;SDS011;974;52.400;9.818;2022-07-23T08:50:23;5.05;;;2.50;;
1947;SDS011;974;52.400;9.818;2022-07-23T08:52:50;4.65;;;2.45;;
1947;SDS011;974;52.400;9.818;2022-07-23T08:55:17;5.63;;;2.50;;
1947;SDS011;974;52.400;9.818;2022-07-23T08:57:44;3.58;;;2.22;;
1947;SDS011;974;52.400;9.818;2022-07-23T09:00:12;16.02;;;6.60;;
1947;SDS011;974;52.400;9.818;2022-07-23T09:02:39;6.60;;;2.45;;
1947;SDS011;974;52.400;9.818;2022-07-23T09:05:05;3.53;;;2.15;;
1947;SDS011;974;52.400;9.818;2022-07-23T09:07:32;6.20;;;2.40;;
1947;SDS011;974;52.400;9.818;2022-07-23T09:10:04;4.93;;;2.37;;
1947;SDS011;974;52.400;9.818;2022-07-23T09:12:31;3.53;;;2.25;;
1947;SDS011;974;52.400;9.818;2022-07-23T09:14:57;6.77;;;2.67;;
1947;SDS011;974;52.400;9.818;2022-07-23T09:17:29;3.20;;;2.20;;
1947;SDS011;974;52.400;9.818;2022-07-23T09:20:11;5.00;;;2.05;;
1947;SDS011;974;52.400;9.818;2022-07-23T09:22:40;4.05;;;2.58;;
1947;SDS011;974;52.400;9.818;2022-07-23T09:25:11;4.45;;;2.30;;
1947;SDS011;974;52.400;9.818;2022-07-23T09:30:23;5.15;;;2.45;;
1947;SDS011;974;52.400;9.818;2022-07-23T09:33:09;4.15;;;2.53;;
1947;SDS011;974;52.400;9.818;2022-07-23T09:35:50;3.88;;;2.42;;
1947;SDS011;974;52.400;9.818;2022-07-23T09:38:21;5.40;;;2.45;;
1947;SDS011;974;52.400;9.818;2022-07-23T09:41:04;4.40;;;2.33;;
1947;SDS011;974;52.400;9.818;2022-07-23T09:43:34;11.18;;;4.72;;
1947;SDS011;974;52.400;9.818;2022-07-23T09:48:49;7.22;;;2.25;;
1947;SDS011;974;52.400;9.818;2022-07-23T09:51:17;4.38;;;1.90;;
1947;SDS011;974;52.400;9.818;2022-07-23T09:53:46;5.63;;;2.22;;
1947;SDS011;974;52.400;9.818;2022-07-23T09:56:12;3.83;;;2.47;;
1947;SDS011;974;52.400;9.818;2022-07-23T09:58:40;5.28;;;2.60;;
1947;SDS011;974;52.400;9.818;2022-07-23T10:01:12;3.28;;;2.30;;
1947;SDS011;974;52.400;9.818;2022-07-23T10:03:38;3.42;;;2.05;;
1947;SDS011;974;52.400;9.818;2022-07-23T10:06:05;4.70;;;2.15;;
1947;SDS011;974;52.400;9.818;2022-07-23T10:08:30;4.40;;;2.23;;
1947;SDS011;974;52.400;9.818;2022-07-23T10:10:58;3.60;;;2.15;;
1947;SDS011;974;52.400;9.818;2022-07-23T10:13:25;3.90;;;2.30;;
1947;SDS011;974;52.400;9.818;2022-07-23T10:16:10;3.53;;;2.30;;
1947;SDS011;974;52.400;9.818;2022-07-23T10:18:35;3.77;;;2.80;;
1947;SDS011;974;52.400;9.818;2022-07-23T10:21:02;4.87;;;2.43;;
1947;SDS011;974;52.400;9.818;2022-07-23T10:34:36;4.30;;;2.70;;
1947;SDS011;974;52.400;9.818;2022-07-23T10:37:27;5.70;;;2.75;;
1947;SDS011;974;52.400;9.818;2022-07-23T10:40:10;5.40;;;2.20;;
1947;SDS011;974;52.400;9.818;2022-07-23T10:42:38;4.23;;;2.00;;
1947;SDS011;974;52.400;9.818;2022-07-23T10:56:16;5.07;;;3.57;;
1947;SDS011;974;52.400;9.818;2022-07-23T10:58:46;3.70;;;2.53;;
1947;SDS011;974;52.400;9.818;2022-07-23T11:01:32;3.70;;;2.63;;
1947;SDS011;974;52.400;9.818;2022-07-23T11:04:04;3.97;;;2.20;;
1947;SDS011;974;52.400;9.818;2022-07-23T11:09:29;4.30;;;2.03;;
1947;SDS011;974;52.400;9.818;2022-07-23T11:17:35;4.93;;;2.37;;
1947;SDS011;974;52.400;9.818;2022-07-23T11:20:21;3.70;;;2.23;;
1947;SDS011;974;52.400;9.818;2022-07-23T11:22:49;4.17;;;2.70;;
1947;SDS011;974;52.400;9.818;2022-07-23T11:27:51;3.40;;;1.90;;
1947;SDS011;974;52.400;9.818;2022-07-23T11:32:51;5.10;;;2.30;;
1947;SDS011;974;52.400;9.818;2022-07-23T11:35:19;3.27;;;1.73;;
1947;SDS011;974;52.400;9.818;2022-07-23T11:37:50;3.10;;;1.80;;
1947;SDS011;974;52.400;9.818;2022-07-23T11:40:36;3.30;;;1.83;;
1947;SDS011;974;52.400;9.818;2022-07-23T11:43:03;10.83;;;2.10;;
1947;SDS011;974;52.400;9.818;2022-07-23T11:45:32;3.30;;;1.47;;
1947;SDS011;974;52.400;9.818;2022-07-23T11:47:59;3.90;;;1.70;;
1947;SDS011;974;52.400;9.818;2022-07-23T11:50:24;3.60;;;1.63;;
1947;SDS011;974;52.400;9.818;2022-07-23T11:52:51;5.93;;;1.77;;
1947;SDS011;974;52.400;9.818;2022-07-23T11:55:17;3.50;;;1.70;;
1947;SDS011;974;52.400;9.818;2022-07-23T11:57:44;3.30;;;1.70;;
1947;SDS011;974;52.400;9.818;2022-07-23T12:00:11;6.30;;;2.20;;
1947;SDS011;974;52.400;9.818;2022-07-23T12:02:46;2.70;;;1.33;;
1947;SDS011;974;52.400;9.818;2022-07-23T12:05:21;2.40;;;1.20;;
1947;SDS011;974;52.400;9.818;2022-07-23T12:07:48;2.80;;;1.60;;
1947;SDS011;974;52.400;9.818;2022-07-23T12:10:16;2.40;;;1.17;;
1947;SDS011;974;52.400;9.818;2022-07-23T12:12:43;2.53;;;1.30;;
1947;SDS011;974;52.400;9.818;2022-07-23T12:15:12;4.23;;;1.40;;
1947;SDS011;974;52.400;9.818;2022-07-23T12:17:39;2.50;;;1.30;;
1947;SDS011;974;52.400;9.818;2022-07-23T12:20:08;2.70;;;1.30;;
1947;SDS011;974;52.400;9.818;2022-07-23T12:22:36;6.33;;;1.33;;
1947;SDS011;974;52.400;9.818;2022-07-23T12:25:12;9.23;;;3.10;;
1947;SDS011;974;52.400;9.818;2022-07-23T12:27:58;3.57;;;1.40;;
1947;SDS011;974;52.400;9.818;2022-07-23T12:30:49;4.93;;;1.77;;
1947;SDS011;974;52.400;9.818;2022-07-23T12:33:23;4.37;;;1.47;;
1947;SDS011;974;52.400;9.818;2022-07-23T12:35:49;3.30;;;1.40;;
1947;SDS011;974;52.400;9.818;2022-07-23T12:38:16;3.43;;;1.50;;
1947;SDS011;974;52.400;9.818;2022-07-23T12:40:44;3.17;;;1.57;;
1947;SDS011;974;52.400;9.818;2022-07-23T12:43:18;3.30;;;1.60;;
1947;SDS011;974;52.400;9.818;2022-07-23T12:45:45;4.40;;;1.80;;
1947;SDS011;974;52.400;9.818;2022-07-23T12:50:53;3.33;;;1.27;;
1947;SDS011;974;52.400;9.818;2022-07-23T12:53:22;6.77;;;1.30;;
1947;SDS011;974;52.400;9.818;2022-07-23T12:55:48;2.77;;;1.20;;
1947;SDS011;974;52.400;9.818;2022-07-23T12:58:18;2.60;;;1.10;;
1947;SDS011;974;52.400;9.818;2022-07-23T13:00:58;2.80;;;1.43;;
1947;SDS011;974;52.400;9.818;2022-07-23T13:06:05;3.07;;;1.40;;
1947;SDS011;974;52.400;9.818;2022-07-23T13:08:34;3.10;;;1.40;;
1947;SDS011;974;52.400;9.818;2022-07-23T13:11:02;4.60;;;1.40;;
1947;SDS011;974;52.400;9.818;2022-07-23T13:13:30;4.97;;;1.40;;
1947;SDS011;974;52.400;9.818;2022-07-23T13:15:57;4.13;;;1.23;;
1947;SDS011;974;52.400;9.818;2022-07-23T13:18:24;2.63;;;1.40;;
1947;SDS011;974;52.400;9.818;2022-07-23T13:20:50;3.00;;;1.30;;
1947;SDS011;974;52.400;9.818;2022-07-23T13:23:16;4.00;;;1.50;;
1947;SDS011;974;52.400;9.818;2022-07-23T13:25:42;2.80;;;1.40;;
1947;SDS011;974;52.400;9.818;2022-07-23T13:28:08;4.87;;;1.50;;
1947;SDS011;974;52.400;9.818;2022-07-23T13:30:34;2.53;;;1.17;;
1947;SDS011;974;52.400;9.818;2022-07-23T13:33:01;2.93;;;1.33;;
1947;SDS011;974;52.400;9.818;2022-07-23T13:35:28;3.90;;;1.40;;
1947;SDS011;974;52.400;9.818;2022-07-23T13:37:54;3.47;;;1.53;;
1947;SDS011;974;52.400;9.818;2022-07-23T13:40:19;3.27;;;1.50;;
1947;SDS011;974;52.400;9.818;2022-07-23T13:42:45;6.27;;;1.23;;
1947;SDS011;974;52.400;9.818;2022-07-23T13:45:11;6.67;;;1.30;;
1947;SDS011;974;52.400;9.818;2022-07-23T13:47:36;2.53;;;1.17;;
1947;SDS011;974;52.400;9.818;2022-07-23T13:50:02;3.37;;;1.30;;
1947;SDS011;974;52.400;9.818;2022-07-23T13:52:28;4.40;;;1.30;;
1947;SDS011;974;52.400;9.818;2022-07-23T13:54:54;3.87;;;1.30;;
1947;SDS011;974;52.400;9.818;2022-07-23T13:57:19;3.33;;;1.20;;
1947;SDS011;974;52.400;9.818;2022-07-23T13:59:45;3.27;;;1.30;;
1947;SDS011;974;52.400;9.818;2022-07-23T14:02:11;3.17;;;1.40;;
1947;SDS011;974;52.400;9.818;2022-07-23T14:04:40;2.80;;;1.40;;
1947;SDS011;974;52.400;9.818;2022-07-23T14:07:06;2.70;;;1.63;;
1947;SDS011;974;52.400;9.818;2022-07-23T14:09:31;2.77;;;1.40;;
1947;SDS011;974;52.400;9.818;2022-07-23T14:11:58;21.33;;;6.27;;
1947;SDS011;974;52.400;9.818;2022-07-23T14:14:24;2.80;;;1.27;;
1947;SDS011;974;52.400;9.818;2022-07-23T14:16:50;4.90;;;1.50;;
1947;SDS011;974;52.400;9.818;2022-07-23T14:19:15;2.57;;;1.13;;
1947;SDS011;974;52.400;9.818;2022-07-23T14:21:41;2.87;;;1.47;;
1947;SDS011;974;52.400;9.818;2022-07-23T14:24:07;5.90;;;1.43;;
1947;SDS011;974;52.400;9.818;2022-07-23T14:26:33;6.53;;;3.60;;
1947;SDS011;974;52.400;9.818;2022-07-23T14:28:58;5.40;;;3.40;;
1947;SDS011;974;52.400;9.818;2022-07-23T14:31:24;3.60;;;1.53;;
1947;SDS011;974;52.400;9.818;2022-07-23T14:33:50;3.60;;;1.30;;
1947;SDS011;974;52.400;9.818;2022-07-23T14:36:15;2.77;;;1.10;;
1947;SDS011;974;52.400;9.818;2022-07-23T14:38:41;3.43;;;1.50;;
1947;SDS011;974;52.400;9.818;2022-07-23T14:41:07;4.22;;;1.50;;
1947;SDS011;974;52.400;9.818;2022-07-23T14:43:33;3.57;;;1.20;;
1947;SDS011;974;52.400;9.818;2022-07-23T14:45:59;2.97;;;1.30;;
1947;SDS011;974;52.400;9.818;2022-07-23T14:48:24;7.50;;;1.60;;
1947;SDS011;974;52.400;9.818;2022-07-23T14:50:50;2.70;;;1.40;;
1947;SDS011;974;52.400;9.818;2022-07-23T14:53:15;3.13;;;1.50;;
1947;SDS011;974;52.400;9.818;2022-07-23T14:55:41;3.10;;;1.60;;
1947;SDS011;974;52.400;9.818;2022-07-23T14:58:07;7.00;;;1.80;;
1947;SDS011;974;52.400;9.818;2022-07-23T15:00:32;6.87;;;1.60;;
1947;SDS011;974;52.400;9.818;2022-07-23T15:02:58;2.37;;;1.10;;
1947;SDS011;974;52.400;9.818;2022-07-23T15:05:23;6.70;;;1.40;;
1947;SDS011;974;52.400;9.818;2022-07-23T15:07:49;6.70;;;1.93;;
1947;SDS011;974;52.400;9.818;2022-07-23T15:10:15;2.80;;;1.40;;
1947;SDS011;974;52.400;9.818;2022-07-23T15:12:41;6.20;;;1.60;;
1947;SDS011;974;52.400;9.818;2022-07-23T15:15:06;2.80;;;1.30;;
1947;SDS011;974;52.400;9.818;2022-07-23T15:17:32;4.70;;;1.57;;
1947;SDS011;974;52.400;9.818;2022-07-23T15:19:58;3.03;;;1.50;;
1947;SDS011;974;52.400;9.818;2022-07-23T15:22:24;2.47;;;1.30;;
1947;SDS011;974;52.400;9.818;2022-07-23T15:24:50;7.40;;;1.30;;
1947;SDS011;974;52.400;9.818;2022-07-23T15:27:15;6.60;;;1.40;;
1947;SDS011;974;52.400;9.818;2022-07-23T15:29:42;3.17;;;1.37;;
1947;SDS011;974;52.400;9.818;2022-07-23T15:32:08;4.07;;;1.10;;
1947;SDS011;974;52.400;9.818;2022-07-23T15:34:35;5.23;;;1.37;;
1947;SDS011;974;52.400;9.818;2022-07-23T15:37:01;3.90;;;1.33;;
1947;SDS011;974;52.400;9.818;2022-07-23T15:39:27;2.53;;;1.20;;
1947;SDS011;974;52.400;9.818;2022-07-23T15:41:53;4.10;;;1.37;;
1947;SDS011;974;52.400;9.818;2022-07-23T15:44:19;3.40;;;1.20;;
1947;SDS011;974;52.400;9.818;2022-07-23T15:46:44;2.80;;;1.13;;
1947;SDS011;974;52.400;9.818;2022-07-23T15:49:10;2.90;;;1.10;;
1947;SDS011;974;52.400;9.818;2022-07-23T15:51:35;7.30;;;1.60;;
1947;SDS011;974;52.400;9.818;2022-07-23T15:54:01;3.33;;;1.27;;
1947;SDS011;974;52.400;9.818;2022-07-23T15:56:27;3.33;;;1.37;;
1947;SDS011;974;52.400;9.818;2022-07-23T15:58:52;2.90;;;1.50;;
1947;SDS011;974;52.400;9.818;2022-07-23T16:01:18;6.67;;;2.30;;
1947;SDS011;974;52.400;9.818;2022-07-23T16:03:44;2.73;;;1.40;;
1947;SDS011;974;52.400;9.818;2022-07-23T16:06:09;2.70;;;1.20;;
1947;SDS011;974;52.400;9.818;2022-07-23T16:08:35;3.30;;;1.00;;
1947;SDS011;974;52.400;9.818;2022-07-23T16:11:01;4.50;;;1.43;;
1947;SDS011;974;52.400;9.818;2022-07-23T16:13:27;2.77;;;1.27;;
1947;SDS011;974;52.400;9.818;2022-07-23T16:15:52;3.17;;;1.13;;